Latest Weather Observations for Alice Springs Airport

IDD60801

Issued at 9:31 am CST Monday 26 January 2015 (issued every 30 minutes, with the page automatically refreshed every 10 minutes)

About weather observations | Map of weather stations | Latest weather observations for NT | Other Formats
Station Details ID: 015590 Name: ALICE SPRINGS AIRPORT Lat: -23.80 Lon: 133.89 Height: 546.0 m
Data from the previous 72 hours. | See also: Recent months at Alice Springs Airport
Date/Time
CST
Temp
°C
App
Temp
°C
Dew
Point
Rel
Hum
%
Delta-T
°C
Wind Press
QNH
hPa
Press
MSL
hPa
Rain
since 9 am
mm
Dir
 
Spd
km/h
Gust
km/h
Spd
kts
Gust
kts
26/09:00am 25.2 22.7 8.3 34 9.3 NE 11 17 6 9 1014.9 1010.8 0.0
26/08:30am 24.7 22.3 7.0 32 9.5 SE 9 11 5 6 1014.5 1010.4 0.0
26/08:00am 24.3 21.9 7.1 33 9.2 SE 9 13 5 7 1014.2 1010.1 0.0
26/07:30am 24.1 21.2 6.3 31 9.4 SE 11 15 6 8 1013.6 1009.5 0.0
26/07:00am 23.3 21.4 9.2 40 7.8 SSE 9 11 5 6 1013.5 1009.4 0.0
26/06:30am 22.4 21.1 11.4 49 6.3 SSE 9 9 5 5 1013.2 1009.1 0.0
26/05:30am 21.2 20.4 13.0 59 4.8 S 9 11 5 6 1012.4 1008.3 0.0
26/05:00am 22.6 23.3 12.3 52 6.0 CALM 0 0 0 0 1012.3 1008.1 0.0
26/04:30am 23.6 22.6 11.0 45 7.2 N 7 9 4 5 1012.3 1008.1 0.0
26/04:00am 23.5 22.6 11.3 46 7.0 ENE 7 9 4 5 1012.4 1008.3 0.0
26/03:30am 23.3 22.4 11.5 47 6.8 SE 7 7 4 4 1012.4 1008.3 0.0
26/03:00am 23.5 22.0 9.3 40 7.9 ESE 7 9 4 5 1012.3 1008.1 0.0
26/02:30am 23.5 22.3 10.4 43 7.4 ESE 7 9 4 5 1012.4 1008.3 0.0
26/02:00am 24.5 22.2 9.0 37 8.6 ESE 11 13 6 7 1012.5 1008.4 0.0
26/01:30am 25.0 22.6 8.8 35 9.0 ESE 11 11 6 6 1012.7 1008.6 0.0
26/01:00am 25.3 22.8 8.4 34 9.3 ESE 11 13 6 7 1012.8 1008.7 0.0
26/12:30am 24.9 22.6 9.1 36 8.8 E 11 13 6 7 1013.0 1008.9 0.0
26/12:00am 25.6 24.2 9.6 36 9.0 E 7 9 4 5 1013.2 1009.1 0.0
 
Date/Time
CST
Temp
°C
App
Temp
°C
Dew
Point
Rel
Hum
%
Delta-T
°C
Wind Press
QNH
hPa
Press
MSL
hPa
Rain
since 9 am
mm
Dir
 
Spd
km/h
Gust
km/h
Spd
kts
Gust
kts
25/11:30pm 26.4 24.5 8.9 33 9.8 ESE 9 11 5 6 1013.3 1009.2 0.0
25/11:00pm 27.1 24.3 8.7 31 10.3 SE 13 15 7 8 1013.4 1009.3 0.0
25/10:30pm 27.5 25.3 9.3 32 10.3 SE 11 13 6 7 1013.2 1009.1 0.0
25/10:00pm 28.4 25.6 8.4 28 11.2 SE 13 17 7 9 1012.9 1008.8 0.0
25/09:30pm 29.3 25.8 7.2 25 12.2 SE 15 20 8 11 1012.5 1008.4 0.0
25/09:00pm 29.9 25.6 6.8 23 12.7 SE 19 30 10 16 1011.8 1007.7 0.0
25/08:30pm 29.8 26.4 7.8 25 12.3 SE 15 24 8 13 1011.3 1007.2 0.0
25/08:00pm 30.4 26.5 7.1 23 12.9 SE 17 20 9 11 1010.8 1006.7 0.0
25/07:30pm 30.9 26.6 6.9 22 13.3 SE 19 28 10 15 1010.4 1006.2 0.0
25/07:00pm 31.6 27.0 6.4 20 13.9 SE 20 28 11 15 1009.9 1005.8 0.0
25/06:30pm 32.5 27.0 6.0 19 14.6 SE 24 37 13 20 1009.4 1005.3 0.0
25/06:00pm 33.5 28.1 6.4 18 15.1 SSE 24 37 13 20 1009.4 1005.3 0.0
25/05:30pm 34.1 28.2 6.0 17 15.6 SE 26 35 14 19 1009.2 1005.1 0.0
25/05:00pm 34.4 29.9 6.9 18 15.5 ESE 20 30 11 16 1009.4 1005.3 0.0
25/04:30pm 34.2 30.2 6.8 18 15.4 ESE 17 26 9 14 1009.7 1005.6 0.0
25/04:00pm 34.4 31.1 8.1 19 15.1 ESE 15 24 8 13 1010.1 1005.9 0.0
25/03:30pm 34.9 31.7 8.4 19 15.3 SE 15 24 8 13 1010.5 1006.3 0.0
25/03:00pm 34.9 31.4 7.2 18 15.7 SE 15 26 8 14 1010.9 1006.8 0.0
25/02:30pm 34.9 31.0 7.2 18 15.7 ESE 17 26 9 14 1011.2 1007.1 0.0
25/02:00pm 34.0 29.4 6.7 18 15.3 ESE 20 30 11 16 1011.4 1007.3 0.0
25/01:30pm 33.8 29.3 6.3 18 15.3 ESE 19 32 10 17 1011.7 1007.6 0.0
25/01:00pm 34.0 29.5 6.1 17 15.5 ESE 19 28 10 15 1011.9 1007.8 0.0
25/12:30pm 32.8 28.3 5.9 18 14.8 E 19 30 10 16 1012.3 1008.1 0.0
25/12:00pm 32.5 27.6 4.3 17 15.1 ESE 19 30 10 16 1012.8 1008.7 0.0
25/11:30am 32.3 27.5 4.5 17 14.9 ESE 19 30 10 16 1012.9 1008.8 0.0
25/11:00am 31.3 25.8 4.1 18 14.4 ESE 22 33 12 18 1013.0 1008.9 0.0
25/10:30am 31.2 25.2 3.2 17 14.6 ESE 24 37 13 20 1013.2 1009.1 0.0
25/10:00am 30.4 24.3 2.9 17 14.2 E 24 32 13 17 1013.3 1009.2 0.0
25/09:30am 29.8 24.0 2.3 17 14.0 ESE 22 30 12 16 1013.4 1009.3 0.0
25/09:00am 29.6 22.8 3.3 18 13.6 ESE 28 35 15 19 1013.6 1009.5 0.0
25/08:30am 28.5 23.1 2.4 18 13.2 ESE 20 32 11 17 1013.6 1009.5 0.0
25/08:00am 27.9 24.3 6.7 26 11.5 ESE 15 19 8 10 1013.4 1009.3 0.0
25/07:30am 26.8 23.6 6.8 28 10.8 ESE 13 17 7 9 1013.4 1009.3 0.0
25/07:00am 26.2 24.8 10.8 38 8.9 ESE 9 11 5 6 1012.9 1008.8 0.0
25/06:30am 25.2 22.4 8.6 35 9.2 ESE 13 17 7 9 1012.4 1008.3 0.0
25/06:00am 25.9 23.5 11.5 40 8.4 ESE 15 22 8 12 1011.8 1007.7 0.0
25/05:30am 25.7 25.5 16.7 57 5.7 ESE 13 19 7 10 1011.3 1007.2 0.0
25/05:00am 24.1 25.2 18.0 68 3.9 ENE 9 9 5 5 1010.9 1006.8 0.0
25/04:30am 25.3 26.4 18.0 64 4.7 ESE 9 13 5 7 1010.8 1006.7 0.0
25/04:00am 25.9 25.9 17.3 59 5.5 SE 13 15 7 8 1010.7 1006.5 0.0
25/03:30am 26.5 28.1 18.2 60 5.4 ENE 7 9 4 5 1010.6 1006.4 0.0
25/03:00am 27.0 27.8 17.2 55 6.3 NNE 9 11 5 6 1010.4 1006.2 0.0
25/02:30am 27.6 27.4 16.6 51 7.0 N 13 17 7 9 1010.5 1006.3 0.0
25/02:00am 27.0 28.0 17.7 56 6.0 N 9 11 5 6 1010.7 1006.5 0.0
25/01:30am 27.2 28.3 17.9 56 6.0 N 9 11 5 6 1010.9 1006.8 0.0
25/01:00am 27.4 28.8 17.4 54 6.4 NNW 6 9 3 5 1011.2 1007.1 0.0
25/12:30am 28.1 30.0 16.6 49 7.3 NE 2 11 1 6 1011.2 1007.1 0.0
25/12:00am 28.6 27.6 15.5 45 8.2 W 15 22 8 12 1011.5 1007.4 0.0
 
Date/Time
CST
Temp
°C
App
Temp
°C
Dew
Point
Rel
Hum
%
Delta-T
°C
Wind Press
QNH
hPa
Press
MSL
hPa
Rain
since 9 am
mm
Dir
 
Spd
km/h
Gust
km/h
Spd
kts
Gust
kts
24/11:30pm 27.4 28.9 16.7 52 6.8 ESE 4 11 2 6 1011.1 1007.0 0.0
24/11:00pm 28.0 26.9 15.4 46 7.9 E 15 19 8 10 1010.6 1006.4 0.0
24/10:30pm 29.3 27.0 14.2 39 9.3 ESE 19 26 10 14 1010.6 1006.4 0.0
24/10:00pm 29.3 25.3 14.2 39 9.3 ESE 28 33 15 18 1009.7 1005.6 0.0
24/09:30pm 29.4 25.5 14.4 40 9.3 ESE 28 35 15 19 1009.4 1005.3 0.0
24/09:00pm 30.2 25.4 14.0 37 10.0 SSE 32 50 17 27 1009.1 1005.0 0.0
24/08:53pm 31.1 29.0 14.6 36 10.3 SSE 19 41 10 22 1008.8 1004.6 0.0
24/08:30pm 31.8 31.5 14.3 34 10.9 ESE 9 11 5 6 1008.4 1004.2 0.0
24/08:00pm 32.2 31.2 13.4 32 11.6 ESE 11 13 6 7 1008.0 1003.9 0.0
24/07:30pm 33.8 32.6 12.8 28 12.9 ESE 11 13 6 7 1007.9 1003.8 0.0
24/07:00pm 34.9 33.7 12.7 26 13.7 E 11 15 6 8 1007.7 1003.6 0.0
24/06:30pm 36.3 35.9 11.0 21 15.3 SSE 4 11 2 6 1007.3 1003.1 0.0
24/06:00pm 37.1 35.7 10.8 20 15.9 SSE 9 19 5 10 1007.2 1003.0 0.0
24/05:30pm 37.3 35.7 10.1 19 16.3 S 9 13 5 7 1007.3 1003.1 0.0
24/05:00pm 38.1 35.9 10.7 19 16.6 S 13 19 7 10 1007.3 1003.1 0.0
24/04:30pm 38.3 37.6 12.1 21 16.2 SSW 7 13 4 7 1007.4 1003.3 0.0
24/04:00pm 37.8 36.8 11.0 20 16.3 ESE 7 17 4 9 1007.6 1003.5 0.0
24/03:30pm 37.3 35.6 11.2 20 15.9 NW 11 17 6 9 1007.9 1003.8 0.0
24/03:00pm 38.1 37.2 11.5 20 16.3 NNW 7 15 4 8 1007.9 1003.8 0.0
24/02:30pm 37.6 37.0 10.4 19 16.4 ESE 4 17 2 9 1008.0 1003.9 0.0
24/02:00pm 36.9 34.8 11.2 21 15.6 SSW 13 20 7 11 1008.3 1004.1 0.0
24/01:30pm 36.8 35.3 11.8 22 15.3 NE 11 19 6 10 1008.6 1004.4 0.0
24/01:00pm 36.7 35.2 11.9 22 15.2 ESE 11 20 6 11 1008.8 1004.6 0.0
24/12:30pm 36.7 35.2 11.9 22 15.2 ENE 11 17 6 9 1009.1 1005.0 0.0
24/12:00pm 35.9 34.4 10.5 21 15.2 SE 9 17 5 9 1009.3 1005.2 0.0
24/11:30am 35.7 33.9 11.0 22 14.9 NNE 11 19 6 10 1009.6 1005.5 0.0
24/11:00am 34.9 32.6 10.4 22 14.6 E 13 22 7 12 1009.8 1005.7 0.0
24/10:30am 34.6 33.7 12.6 26 13.5 ESE 9 17 5 9 1009.8 1005.7 0.0
24/10:00am 34.2 33.3 12.5 27 13.3 E 9 17 5 9 1009.8 1005.7 0.0
24/09:30am 32.7 32.6 13.4 31 11.9 ESE 6 11 3 6 1010.2 1006.0 0.0
24/09:00am 32.0 33.2 13.7 33 11.3 CALM 0 6 0 3 1010.2 1006.0 0.0
24/08:30am 30.5 31.7 13.8 36 10.3 CALM 0 0 0 0 1009.7 1005.6 0.0
24/08:00am 29.2 30.4 13.9 39 9.4 CALM 0 6 0 3 1009.5 1005.4 0.0
24/07:30am 26.7 26.7 13.7 44 7.9 SW 6 7 3 4 1009.3 1005.2 0.0
24/07:00am 24.9 26.6 15.2 54 6.0 CALM 0 0 0 0 1008.9 1004.7 0.0
24/06:30am 22.3 22.6 15.1 63 4.4 WNW 7 7 4 4 1008.5 1004.3 0.0
24/06:00am 22.1 22.2 14.5 62 4.6 WNW 7 9 4 5 1008.3 1004.1 0.0
24/05:30am 21.9 22.4 15.5 67 3.9 WNW 7 9 4 5 1008.0 1003.9 0.0
24/05:00am 22.3 22.2 14.9 63 4.5 NW 9 9 5 5 1007.8 1003.7 0.0
24/04:30am 22.0 22.0 15.3 65 4.1 W 9 11 5 6 1007.8 1003.7 0.0
24/04:00am 22.3 22.9 16.9 71 3.4 W 9 9 5 5 1007.9 1003.8 0.0
24/03:30am 23.0 23.9 16.6 67 4.0 WNW 7 9 4 5 1007.9 1003.8 0.0
24/03:00am 23.2 24.3 16.7 67 4.1 WNW 6 9 3 5 1007.9 1003.8 0.0
24/02:30am 23.3 25.6 16.8 67 4.1 CALM 0 0 0 0 1007.9 1003.8 0.0
24/02:00am 23.6 25.8 16.4 64 4.5 CALM 0 0 0 0 1008.0 1003.9 0.0
24/01:30am 23.9 26.1 16.6 63 4.6 CALM 0 0 0 0 1008.4 1004.2 0.0
24/01:00am 24.8 26.9 16.2 58 5.4 CALM 0 0 0 0 1008.6 1004.4 0.0
24/12:30am 25.2 26.9 15.2 54 6.2 CALM 0 0 0 0 1008.9 1004.7 0.0
24/12:00am 25.4 27.5 16.2 56 5.8 CALM 0 0 0 0 1009.1 1005.0 0.0
 
Date/Time
CST
Temp
°C
App
Temp
°C
Dew
Point
Rel
Hum
%
Delta-T
°C
Wind Press
QNH
hPa
Press
MSL
hPa
Rain
since 9 am
mm
Dir
 
Spd
km/h
Gust
km/h
Spd
kts
Gust
kts
23/11:30pm 26.4 27.6 13.9 46 7.6 CALM 0 0 0 0 1009.5 1005.4 0.0
23/11:00pm 26.6 27.7 13.5 44 7.9 CALM 0 0 0 0 1009.6 1005.5 0.0
23/10:30pm 26.8 28.0 13.8 44 7.9 CALM 0 0 0 0 1009.6 1005.5 0.0
23/10:00pm 27.7 28.5 12.5 39 9.1 CALM 0 0 0 0 1009.3 1005.2 0.0
23/09:30pm 28.5 27.5 10.9 33 10.3 SE 7 7 4 4 1009.0 1004.8 0.0
23/09:00pm 29.2 27.9 11.4 33 10.5 ESE 9 9 5 5 1008.8 1004.6 0.0
23/08:30pm 30.2 28.1 9.8 28 11.8 ESE 11 11 6 6 1008.6 1004.4 0.0
23/08:00pm 31.2 28.9 8.9 25 12.8 ESE 11 13 6 7 1008.2 1004.0 0.0
23/07:30pm 32.3 29.4 8.3 22 13.7 ESE 13 19 7 10 1007.9 1003.8 0.0
23/07:00pm 34.3 30.8 7.0 18 15.4 ESE 15 19 8 10 1007.4 1003.3 0.0
23/06:30pm 35.4 30.6 5.8 16 16.5 ESE 20 30 11 16 1007.0 1002.8 0.0
23/06:00pm 36.0 31.6 6.4 16 16.7 SE 19 30 10 16 1006.8 1002.6 0.0
23/05:30pm 36.5 31.5 6.5 16 17.0 SE 22 39 12 21 1006.6 1002.4 0.0
23/05:00pm 36.1 31.7 7.2 17 16.5 ESE 20 33 11 18 1006.6 1002.4 0.0
23/04:30pm 36.2 31.8 7.4 17 16.5 SE 20 30 11 16 1006.6 1002.4 0.0
23/04:00pm 36.4 33.2 8.4 18 16.3 S 15 26 8 14 1007.0 1002.8 0.0
23/03:30pm 36.4 32.9 8.7 18 16.2 SSE 17 30 9 16 1007.2 1003.0 0.0
23/03:00pm 35.6 31.9 7.8 18 16.0 ESE 17 32 9 17 1007.4 1003.3 0.0
23/02:30pm 35.1 31.3 7.7 18 15.7 SE 17 30 9 16 1007.6 1003.5 0.0
23/02:00pm 35.4 30.8 6.7 17 16.2 ESE 20 37 11 20 1007.8 1003.7 0.0
23/01:30pm 34.6 30.2 7.6 19 15.4 SE 20 33 11 18 1008.4 1004.2 0.0
23/01:00pm 34.8 29.9 8.3 19 15.3 SE 24 39 13 21 1008.7 1004.5 0.0
23/12:30pm 34.4 29.3 7.8 19 15.2 SE 24 35 13 19 1008.9 1004.7 0.0
23/12:00pm 33.8 29.1 7.6 19 14.9 SE 22 37 12 20 1009.2 1005.1 0.0
23/11:30am 33.6 28.4 7.2 19 14.9 SE 24 37 13 20 1009.5 1005.4 0.0
23/11:00am 32.8 29.5 9.4 23 13.6 SE 17 26 9 14 1009.7 1005.6 0.0
23/10:30am 32.2 29.2 9.2 24 13.3 SE 15 22 8 12 1010.1 1005.9 0.0
23/10:00am 31.9 29.4 9.7 25 12.9 SSE 13 20 7 11 1010.2 1006.0 0.0

Other Formats:

Comma delimited format used in spreadsheet applications
http://www.bom.gov.au/fwo/IDD60801/IDD60801.94326.axf

JavaScript Object Notation format (JSON) in row-major order
http://www.bom.gov.au/fwo/IDD60801/IDD60801.94326.json